sensor_id;sensor_type;location;lat;lon;timestamp;pressure;altitude;pressure_sealevel;temperature;humidity
24031;BME280;12240;51.142;22.486;2022-09-03T00:05:08;99831.66;;;7.76;100.00
24031;BME280;12240;51.142;22.486;2022-09-03T00:08:01;99769.34;;;7.39;100.00
24031;BME280;12240;51.142;22.486;2022-09-03T00:13:37;99776.44;;;7.39;100.00
24031;BME280;12240;51.142;22.486;2022-09-03T00:16:10;99829.75;;;7.67;100.00
24031;BME280;12240;51.142;22.486;2022-09-03T00:18:48;99815.81;;;7.54;100.00
24031;BME280;12240;51.142;22.486;2022-09-03T00:24:20;99818.72;;;7.51;100.00
24031;BME280;12240;51.142;22.486;2022-09-03T00:26:58;99842.91;;;7.58;100.00
24031;BME280;12240;51.142;22.486;2022-09-03T00:29:40;99829.78;;;7.45;100.00
24031;BME280;12240;51.142;22.486;2022-09-03T00:32:23;99783.44;;;7.18;100.00
24031;BME280;12240;51.142;22.486;2022-09-03T00:35:03;99822.81;;;7.44;100.00
24031;BME280;12240;51.142;22.486;2022-09-03T00:37:34;99829.78;;;7.45;100.00
24031;BME280;12240;51.142;22.486;2022-09-03T00:40:42;99809.44;;;7.35;100.00
24031;BME280;12240;51.142;22.486;2022-09-03T00:43:30;99785.28;;;7.17;100.00
24031;BME280;12240;51.142;22.486;2022-09-03T00:46:25;99821.13;;;7.32;100.00
24031;BME280;12240;51.142;22.486;2022-09-03T00:49:45;99819.69;;;7.28;100.00
24031;BME280;12240;51.142;22.486;2022-09-03T00:58:54;99829.69;;;7.36;100.00
24031;BME280;12240;51.142;22.486;2022-09-03T01:01:27;99817.16;;;7.27;100.00
24031;BME280;12240;51.142;22.486;2022-09-03T01:07:20;99814.16;;;7.20;100.00
24031;BME280;12240;51.142;22.486;2022-09-03T01:10:39;99821.13;;;7.21;100.00
24031;BME280;12240;51.142;22.486;2022-09-03T01:13:35;99769.59;;;6.92;100.00
24031;BME280;12240;51.142;22.486;2022-09-03T01:30:19;99824.50;;;7.01;100.00
24031;BME280;12240;51.142;22.486;2022-09-03T01:33:01;99827.88;;;7.03;100.00
24031;BME280;12240;51.142;22.486;2022-09-03T01:35:47;99834.13;;;7.02;100.00
24031;BME280;12240;51.142;22.486;2022-09-03T01:39:05;99816.19;;;6.94;100.00
24031;BME280;12240;51.142;22.486;2022-09-03T01:51:26;99819.06;;;6.91;100.00
24031;BME280;12240;51.142;22.486;2022-09-03T02:00:13;99824.47;;;6.79;100.00
24031;BME280;12240;51.142;22.486;2022-09-03T02:02:44;99813.88;;;6.79;100.00
24031;BME280;12240;51.142;22.486;2022-09-03T02:05:25;99781.84;;;6.60;100.00
24031;BME280;12240;51.142;22.486;2022-09-03T02:08:03;99813.75;;;6.80;100.00
24031;BME280;12240;51.142;22.486;2022-09-03T02:10:57;99819.50;;;6.74;100.00
24031;BME280;12240;51.142;22.486;2022-09-03T02:13:56;99826.34;;;6.66;100.00
24031;BME280;12240;51.142;22.486;2022-09-03T02:16:30;99823.09;;;6.62;100.00
24031;BME280;12240;51.142;22.486;2022-09-03T02:19:08;99824.81;;;6.63;100.00
24031;BME280;12240;51.142;22.486;2022-09-03T02:21:43;99777.69;;;6.34;100.00
24031;BME280;12240;51.142;22.486;2022-09-03T02:24:14;99777.69;;;6.34;100.00
24031;BME280;12240;51.142;22.486;2022-09-03T02:26:43;99789.97;;;6.35;100.00
24031;BME280;12240;51.142;22.486;2022-09-03T02:29:13;99829.97;;;6.65;100.00
24031;BME280;12240;51.142;22.486;2022-09-03T02:31:43;99831.44;;;6.80;100.00
24031;BME280;12240;51.142;22.486;2022-09-03T02:34:12;99827.44;;;6.74;100.00
24031;BME280;12240;51.142;22.486;2022-09-03T02:36:46;99829.97;;;6.65;100.00
24031;BME280;12240;51.142;22.486;2022-09-03T02:39:16;99831.03;;;6.62;100.00
24031;BME280;12240;51.142;22.486;2022-09-03T02:41:55;99827.78;;;6.59;100.00
24031;BME280;12240;51.142;22.486;2022-09-03T02:44:30;99816.22;;;6.49;100.00
24031;BME280;12240;51.142;22.486;2022-09-03T02:47:05;99736.75;;;6.05;100.00
24031;BME280;12240;51.142;22.486;2022-09-03T02:49:34;99817.06;;;6.49;100.00
24031;BME280;12240;51.142;22.486;2022-09-03T02:52:07;99833.47;;;6.65;100.00
24031;BME280;12240;51.142;22.486;2022-09-03T02:54:37;99806.09;;;6.43;100.00
24031;BME280;12240;51.142;22.486;2022-09-03T02:57:14;99830.41;;;6.48;100.00
24031;BME280;12240;51.142;22.486;2022-09-03T02:59:42;99775.00;;;6.12;100.00
24031;BME280;12240;51.142;22.486;2022-09-03T03:02:12;99820.03;;;6.34;100.00
24031;BME280;12240;51.142;22.486;2022-09-03T03:04:41;99831.56;;;6.33;100.00
24031;BME280;12240;51.142;22.486;2022-09-03T03:07:09;99831.06;;;6.28;100.00
24031;BME280;12240;51.142;22.486;2022-09-03T03:09:37;99824.44;;;6.22;100.00
24031;BME280;12240;51.142;22.486;2022-09-03T03:12:05;99818.97;;;6.13;100.00
24031;BME280;12240;51.142;22.486;2022-09-03T03:14:34;99829.44;;;6.14;100.00
24031;BME280;12240;51.142;22.486;2022-09-03T03:17:02;99807.16;;;6.06;100.00
24031;BME280;12240;51.142;22.486;2022-09-03T03:19:31;99827.00;;;6.11;100.00
24031;BME280;12240;51.142;22.486;2022-09-03T03:21:59;99817.03;;;6.04;100.00
24031;BME280;12240;51.142;22.486;2022-09-03T03:24:27;99819.88;;;6.01;100.00
24031;BME280;12240;51.142;22.486;2022-09-03T03:26:56;99760.09;;;5.63;100.00
24031;BME280;12240;51.142;22.486;2022-09-03T03:29:27;99818.31;;;5.98;100.00
24031;BME280;12240;51.142;22.486;2022-09-03T03:31:55;99819.88;;;6.01;100.00
24031;BME280;12240;51.142;22.486;2022-09-03T03:34:23;99773.56;;;5.71;100.00
24031;BME280;12240;51.142;22.486;2022-09-03T03:36:54;99774.31;;;5.73;100.00
24031;BME280;12240;51.142;22.486;2022-09-03T03:39:23;99824.25;;;6.13;100.00
24031;BME280;12240;51.142;22.486;2022-09-03T03:41:51;99826.91;;;6.13;100.00
24031;BME280;12240;51.142;22.486;2022-09-03T03:44:20;99820.38;;;6.06;100.00
24031;BME280;12240;51.142;22.486;2022-09-03T03:46:48;99807.25;;;5.93;100.00
24031;BME280;12240;51.142;22.486;2022-09-03T03:49:16;99835.69;;;6.13;100.00
24031;BME280;12240;51.142;22.486;2022-09-03T03:51:44;99832.66;;;6.07;100.00
24031;BME280;12240;51.142;22.486;2022-09-03T03:54:12;99835.72;;;6.01;100.00
24031;BME280;12240;51.142;22.486;2022-09-03T03:56:44;99835.97;;;5.98;100.00
24031;BME280;12240;51.142;22.486;2022-09-03T03:59:22;99812.53;;;5.80;100.00
24031;BME280;12240;51.142;22.486;2022-09-03T04:01:53;99781.22;;;5.63;100.00
24031;BME280;12240;51.142;22.486;2022-09-03T04:04:21;99833.88;;;5.90;100.00
24031;BME280;12240;51.142;22.486;2022-09-03T04:06:49;99830.53;;;5.88;100.00
24031;BME280;12240;51.142;22.486;2022-09-03T04:09:18;99801.38;;;5.64;100.00
24031;BME280;12240;51.142;22.486;2022-09-03T04:11:46;99847.44;;;5.85;100.00
24031;BME280;12240;51.142;22.486;2022-09-03T04:14:15;99849.97;;;5.87;100.00
24031;BME280;12240;51.142;22.486;2022-09-03T04:16:44;99811.97;;;5.64;100.00
24031;BME280;12240;51.142;22.486;2022-09-03T04:19:13;99793.56;;;5.63;100.00
24031;BME280;12240;51.142;22.486;2022-09-03T04:21:43;99843.91;;;5.98;100.00
24031;BME280;12240;51.142;22.486;2022-09-03T04:24:11;99845.47;;;6.00;100.00
24031;BME280;12240;51.142;22.486;2022-09-03T04:26:40;99829.50;;;6.02;100.00
24031;BME280;12240;51.142;22.486;2022-09-03T04:29:09;99837.16;;;6.17;100.00
24031;BME280;12240;51.142;22.486;2022-09-03T04:31:38;99845.59;;;6.22;100.00
24031;BME280;12240;51.142;22.486;2022-09-03T04:34:07;99835.84;;;6.23;100.00
24031;BME280;12240;51.142;22.486;2022-09-03T04:36:37;99846.34;;;6.35;100.00
24031;BME280;12240;51.142;22.486;2022-09-03T04:39:05;99845.78;;;6.43;100.00
24031;BME280;12240;51.142;22.486;2022-09-03T04:41:34;99841.38;;;6.54;100.00
24031;BME280;12240;51.142;22.486;2022-09-03T04:44:02;99840.31;;;6.57;100.00
24031;BME280;12240;51.142;22.486;2022-09-03T04:46:30;99839.13;;;6.72;100.00
24031;BME280;12240;51.142;22.486;2022-09-03T04:49:01;99839.13;;;6.83;100.00
24031;BME280;12240;51.142;22.486;2022-09-03T04:51:29;99797.03;;;6.69;100.00
24031;BME280;12240;51.142;22.486;2022-09-03T04:54:00;99834.88;;;7.15;100.00
24031;BME280;12240;51.142;22.486;2022-09-03T04:56:33;99825.22;;;7.36;100.00
24031;BME280;12240;51.142;22.486;2022-09-03T04:59:07;99837.91;;;7.86;100.00
24031;BME280;12240;51.142;22.486;2022-09-03T05:01:38;99835.50;;;8.37;100.00
24031;BME280;12240;51.142;22.486;2022-09-03T05:04:08;99834.63;;;8.68;100.00
24031;BME280;12240;51.142;22.486;2022-09-03T05:06:36;99842.16;;;9.14;100.00
24031;BME280;12240;51.142;22.486;2022-09-03T05:09:05;99806.13;;;9.30;100.00
24031;BME280;12240;51.142;22.486;2022-09-03T05:11:33;99845.06;;;9.81;100.00
24031;BME280;12240;51.142;22.486;2022-09-03T05:14:02;99848.03;;;10.06;100.00
24031;BME280;12240;51.142;22.486;2022-09-03T05:16:32;99837.03;;;10.20;100.00
24031;BME280;12240;51.142;22.486;2022-09-03T05:19:00;99837.47;;;10.54;100.00
24031;BME280;12240;51.142;22.486;2022-09-03T05:21:34;99845.97;;;10.77;100.00
24031;BME280;12240;51.142;22.486;2022-09-03T05:24:04;99844.53;;;11.11;100.00
24031;BME280;12240;51.142;22.486;2022-09-03T05:26:37;99807.97;;;11.30;100.00
24031;BME280;12240;51.142;22.486;2022-09-03T05:29:06;99823.88;;;11.59;100.00
24031;BME280;12240;51.142;22.486;2022-09-03T05:31:37;99795.81;;;11.55;100.00
24031;BME280;12240;51.142;22.486;2022-09-03T05:34:07;99808.03;;;11.85;100.00
24031;BME280;12240;51.142;22.486;2022-09-03T05:36:36;99844.44;;;12.38;100.00
24031;BME280;12240;51.142;22.486;2022-09-03T05:39:06;99824.78;;;12.39;100.00
24031;BME280;12240;51.142;22.486;2022-09-03T05:41:34;99815.75;;;12.58;100.00
24031;BME280;12240;51.142;22.486;2022-09-03T05:44:02;99807.88;;;12.74;100.00
24031;BME280;12240;51.142;22.486;2022-09-03T05:46:33;99779.28;;;12.74;100.00
24031;BME280;12240;51.142;22.486;2022-09-03T05:49:05;99796.66;;;13.14;100.00
24031;BME280;12240;51.142;22.486;2022-09-03T05:51:36;99808.88;;;13.50;100.00
24031;BME280;12240;51.142;22.486;2022-09-03T05:54:06;99826.34;;;13.70;100.00
24031;BME280;12240;51.142;22.486;2022-09-03T05:56:38;99785.50;;;13.60;100.00
24031;BME280;12240;51.142;22.486;2022-09-03T05:59:08;99826.59;;;14.08;100.00
24031;BME280;12240;51.142;22.486;2022-09-03T06:01:40;99832.88;;;14.25;100.00
24031;BME280;12240;51.142;22.486;2022-09-03T06:04:15;99788.97;;;14.10;100.00
24031;BME280;12240;51.142;22.486;2022-09-03T06:06:45;99820.84;;;14.53;100.00
24031;BME280;12240;51.142;22.486;2022-09-03T06:09:17;99809.97;;;14.63;97.56
24031;BME280;12240;51.142;22.486;2022-09-03T06:11:47;99818.84;;;14.95;94.81
24031;BME280;12240;51.142;22.486;2022-09-03T06:14:17;99817.47;;;15.24;92.26
24031;BME280;12240;51.142;22.486;2022-09-03T06:16:47;99772.19;;;15.20;90.11
24031;BME280;12240;51.142;22.486;2022-09-03T06:19:17;99808.97;;;15.59;88.03
24031;BME280;12240;51.142;22.486;2022-09-03T06:21:46;99833.03;;;15.83;86.60
24031;BME280;12240;51.142;22.486;2022-09-03T06:24:20;99825.25;;;15.57;86.96
24031;BME280;12240;51.142;22.486;2022-09-03T06:26:55;99791.88;;;15.60;87.19
24031;BME280;12240;51.142;22.486;2022-09-03T06:29:24;99813.22;;;15.92;87.13
24031;BME280;12240;51.142;22.486;2022-09-03T06:31:53;99812.53;;;16.20;85.81
24031;BME280;12240;51.142;22.486;2022-09-03T06:34:23;99799.69;;;16.30;85.93
24031;BME280;12240;51.142;22.486;2022-09-03T06:36:55;99733.22;;;16.02;84.17
24031;BME280;12240;51.142;22.486;2022-09-03T06:39:23;99817.28;;;16.64;83.92
24031;BME280;12240;51.142;22.486;2022-09-03T06:41:52;99822.81;;;16.40;83.03
24031;BME280;12240;51.142;22.486;2022-09-03T06:44:33;99820.06;;;16.56;83.53
24031;BME280;12240;51.142;22.486;2022-09-03T06:47:01;99824.56;;;16.55;82.93
24031;BME280;12240;51.142;22.486;2022-09-03T06:49:30;99835.66;;;16.97;83.95
24031;BME280;12240;51.142;22.486;2022-09-03T06:51:59;99824.34;;;17.16;82.02
24031;BME280;12240;51.142;22.486;2022-09-03T06:54:27;99823.09;;;17.41;79.82
24031;BME280;12240;51.142;22.486;2022-09-03T06:56:55;99800.84;;;17.48;79.80
24031;BME280;12240;51.142;22.486;2022-09-03T06:59:26;99835.56;;;17.72;78.22
24031;BME280;12240;51.142;22.486;2022-09-03T07:01:55;99837.59;;;17.84;78.01
24031;BME280;12240;51.142;22.486;2022-09-03T07:04:27;99836.63;;;18.06;77.20
24031;BME280;12240;51.142;22.486;2022-09-03T07:06:55;99842.41;;;18.53;76.08
24031;BME280;12240;51.142;22.486;2022-09-03T07:09:23;99835.78;;;18.77;73.93
24031;BME280;12240;51.142;22.486;2022-09-03T07:11:52;99838.75;;;19.10;72.61
24031;BME280;12240;51.142;22.486;2022-09-03T07:14:21;99798.75;;;19.20;71.12
24031;BME280;12240;51.142;22.486;2022-09-03T07:16:49;99849.16;;;19.68;69.73
24031;BME280;12240;51.142;22.486;2022-09-03T07:19:19;99850.88;;;19.76;68.10
24031;BME280;12240;51.142;22.486;2022-09-03T07:21:47;99853.38;;;19.77;68.23
24031;BME280;12240;51.142;22.486;2022-09-03T07:24:18;99828.19;;;19.36;68.41
24031;BME280;12240;51.142;22.486;2022-09-03T07:26:49;99839.03;;;19.42;68.69
24031;BME280;12240;51.142;22.486;2022-09-03T07:29:18;99859.84;;;20.17;68.88
24031;BME280;12240;51.142;22.486;2022-09-03T07:31:49;99822.84;;;20.24;66.79
24031;BME280;12240;51.142;22.486;2022-09-03T07:34:21;99858.25;;;20.42;65.19
24031;BME280;12240;51.142;22.486;2022-09-03T07:36:54;99859.94;;;20.43;65.90
24031;BME280;12240;51.142;22.486;2022-09-03T07:39:22;99854.72;;;20.41;65.93
24031;BME280;12240;51.142;22.486;2022-09-03T07:41:50;99854.03;;;20.26;64.96
24031;BME280;12240;51.142;22.486;2022-09-03T07:44:18;99849.97;;;20.63;64.77
24031;BME280;12240;51.142;22.486;2022-09-03T07:46:47;99851.53;;;20.25;63.36
24031;BME280;12240;51.142;22.486;2022-09-03T07:49:19;99811.06;;;19.29;64.53
24031;BME280;12240;51.142;22.486;2022-09-03T07:51:49;99855.91;;;19.85;63.62
24031;BME280;12240;51.142;22.486;2022-09-03T07:54:19;99812.19;;;19.13;63.91
24031;BME280;12240;51.142;22.486;2022-09-03T07:56:48;99847.28;;;19.68;63.74
24031;BME280;12240;51.142;22.486;2022-09-03T07:59:17;99822.97;;;19.68;63.77
24031;BME280;12240;51.142;22.486;2022-09-03T08:01:46;99813.44;;;19.73;62.55
24031;BME280;12240;51.142;22.486;2022-09-03T08:04:14;99818.69;;;19.81;62.05
24031;BME280;12240;51.142;22.486;2022-09-03T08:06:42;99845.75;;;20.34;61.44
24031;BME280;12240;51.142;22.486;2022-09-03T08:09:11;99843.72;;;20.56;60.92
24031;BME280;12240;51.142;22.486;2022-09-03T08:11:42;99841.97;;;20.22;60.86
24031;BME280;12240;51.142;22.486;2022-09-03T08:14:13;99839.06;;;20.24;60.48
24031;BME280;12240;51.142;22.486;2022-09-03T08:16:44;99838.56;;;20.80;59.90
24031;BME280;12240;51.142;22.486;2022-09-03T08:19:16;99853.78;;;20.95;58.62
24031;BME280;12240;51.142;22.486;2022-09-03T08:21:45;99844.66;;;21.15;57.56
24031;BME280;12240;51.142;22.486;2022-09-03T08:24:16;99848.56;;;21.26;57.46
24031;BME280;12240;51.142;22.486;2022-09-03T08:26:47;99840.88;;;21.36;57.59
24031;BME280;12240;51.142;22.486;2022-09-03T08:29:19;99803.75;;;21.36;56.42
24031;BME280;12240;51.142;22.486;2022-09-03T08:31:48;99836.31;;;21.17;56.01
24031;BME280;12240;51.142;22.486;2022-09-03T08:34:17;99840.22;;;21.47;56.31
24031;BME280;12240;51.142;22.486;2022-09-03T08:36:46;99815.63;;;20.57;56.56
24031;BME280;12240;51.142;22.486;2022-09-03T08:39:15;99858.72;;;20.05;57.76
24031;BME280;12240;51.142;22.486;2022-09-03T08:45:06;99802.53;;;21.39;55.13
24031;BME280;12240;51.142;22.486;2022-09-03T08:47:43;99840.88;;;21.42;52.67
24031;BME280;12240;51.142;22.486;2022-09-03T08:53:07;99834.16;;;20.66;53.04
24031;BME280;12240;51.142;22.486;2022-09-03T08:55:51;99833.78;;;20.89;53.01
24031;BME280;12240;51.142;22.486;2022-09-03T08:58:26;99796.31;;;21.06;53.17
24031;BME280;12240;51.142;22.486;2022-09-03T09:01:03;99832.09;;;20.88;53.55
24031;BME280;12240;51.142;22.486;2022-09-03T09:21:42;99791.22;;;21.61;51.78
24031;BME280;12240;51.142;22.486;2022-09-03T09:24:23;99829.59;;;21.45;50.37
24031;BME280;12240;51.142;22.486;2022-09-03T09:26:58;99817.34;;;22.07;50.46
24031;BME280;12240;51.142;22.486;2022-09-03T09:29:32;99747.78;;;21.74;49.84
24031;BME280;12240;51.142;22.486;2022-09-03T09:32:02;99820.34;;;21.92;50.74
24031;BME280;12240;51.142;22.486;2022-09-03T09:34:37;99788.28;;;22.20;49.49
24031;BME280;12240;51.142;22.486;2022-09-03T09:37:10;99814.28;;;22.96;49.65
24031;BME280;12240;51.142;22.486;2022-09-03T09:39:57;99823.78;;;23.12;48.02
24031;BME280;12240;51.142;22.486;2022-09-03T09:42:26;99812.88;;;22.25;48.99
24031;BME280;12240;51.142;22.486;2022-09-03T09:45:08;99813.16;;;22.11;48.50
24031;BME280;12240;51.142;22.486;2022-09-03T09:47:38;99783.22;;;21.92;49.16
24031;BME280;12240;51.142;22.486;2022-09-03T09:50:19;99807.59;;;22.37;48.48
24031;BME280;12240;51.142;22.486;2022-09-03T09:53:06;99778.66;;;22.24;49.12
24031;BME280;12240;51.142;22.486;2022-09-03T09:55:55;99803.75;;;22.51;47.95
24031;BME280;12240;51.142;22.486;2022-09-03T09:58:27;99823.06;;;22.30;48.44
24031;BME280;12240;51.142;22.486;2022-09-03T10:03:34;99832.31;;;22.16;48.68
24031;BME280;12240;51.142;22.486;2022-09-03T10:06:08;99777.34;;;21.95;47.87
24031;BME280;12240;51.142;22.486;2022-09-03T10:09:10;99826.13;;;23.33;47.26
24031;BME280;12240;51.142;22.486;2022-09-03T10:11:43;99809.91;;;23.20;46.73
24031;BME280;12240;51.142;22.486;2022-09-03T10:14:29;99812.84;;;21.81;47.74
24031;BME280;12240;51.142;22.486;2022-09-03T10:17:26;99778.78;;;22.98;47.74
24031;BME280;12240;51.142;22.486;2022-09-03T10:23:27;99787.97;;;21.97;46.95
24031;BME280;12240;51.142;22.486;2022-09-03T10:26:12;99811.84;;;22.64;47.56
24031;BME280;12240;51.142;22.486;2022-09-03T10:28:50;99829.63;;;23.40;47.93
24031;BME280;12240;51.142;22.486;2022-09-03T10:59:35;99793.84;;;24.75;46.61
24031;BME280;12240;51.142;22.486;2022-09-03T11:02:24;99775.72;;;23.55;45.66
24031;BME280;12240;51.142;22.486;2022-09-03T11:05:19;99793.53;;;22.53;46.97
24031;BME280;12240;51.142;22.486;2022-09-03T11:08:15;99799.03;;;23.20;46.75
24031;BME280;12240;51.142;22.486;2022-09-03T11:10:52;99774.38;;;22.72;47.75
24031;BME280;12240;51.142;22.486;2022-09-03T11:13:31;99797.09;;;23.52;47.99
24031;BME280;12240;51.142;22.486;2022-09-03T11:16:17;99759.63;;;22.31;47.60
24031;BME280;12240;51.142;22.486;2022-09-03T11:18:56;99800.50;;;23.83;47.44
24031;BME280;12240;51.142;22.486;2022-09-03T11:21:30;99800.03;;;24.93;46.47
24031;BME280;12240;51.142;22.486;2022-09-03T11:24:20;99723.19;;;24.50;45.90
24031;BME280;12240;51.142;22.486;2022-09-03T11:30:27;99741.59;;;23.41;46.95
24031;BME280;12240;51.142;22.486;2022-09-03T11:32:59;99765.44;;;23.75;46.52
24031;BME280;12240;51.142;22.486;2022-09-03T11:38:19;99731.56;;;24.90;45.32
24031;BME280;12240;51.142;22.486;2022-09-03T11:41:14;99757.16;;;25.35;45.58
24031;BME280;12240;51.142;22.486;2022-09-03T11:43:52;99772.91;;;24.16;45.92
24031;BME280;12240;51.142;22.486;2022-09-03T11:48:54;99772.69;;;23.99;46.42
24031;BME280;12240;51.142;22.486;2022-09-03T11:54:05;99765.19;;;24.84;46.79
24031;BME280;12240;51.142;22.486;2022-09-03T11:56:36;99768.38;;;23.74;46.78
24031;BME280;12240;51.142;22.486;2022-09-03T11:59:23;99751.56;;;24.43;46.88
24031;BME280;12240;51.142;22.486;2022-09-03T12:02:31;99763.56;;;23.94;46.56
24031;BME280;12240;51.142;22.486;2022-09-03T12:05:35;99757.50;;;24.92;45.61
24031;BME280;12240;51.142;22.486;2022-09-03T12:14:16;99748.84;;;24.43;46.90
24031;BME280;12240;51.142;22.486;2022-09-03T12:19:49;99743.75;;;24.76;47.01
24031;BME280;12240;51.142;22.486;2022-09-03T12:22:24;99737.63;;;23.91;47.70
24031;BME280;12240;51.142;22.486;2022-09-03T12:24:53;99746.56;;;23.44;48.24
24031;BME280;12240;51.142;22.486;2022-09-03T12:27:25;99738.69;;;24.50;46.40
24031;BME280;12240;51.142;22.486;2022-09-03T12:29:56;99671.34;;;23.56;47.37
24031;BME280;12240;51.142;22.486;2022-09-03T12:32:33;99735.84;;;24.56;46.15
24031;BME280;12240;51.142;22.486;2022-09-03T12:35:14;99705.25;;;23.72;46.72
24031;BME280;12240;51.142;22.486;2022-09-03T12:38:03;99692.81;;;23.64;47.92
24031;BME280;12240;51.142;22.486;2022-09-03T12:40:42;99694.00;;;22.96;48.49
24031;BME280;12240;51.142;22.486;2022-09-03T12:43:30;99718.34;;;23.93;47.41
24031;BME280;12240;51.142;22.486;2022-09-03T12:46:17;99716.41;;;25.05;46.53
24031;BME280;12240;51.142;22.486;2022-09-03T12:49:03;99715.16;;;24.67;46.57
24031;BME280;12240;51.142;22.486;2022-09-03T12:52:35;99716.44;;;23.82;47.83
24031;BME280;12240;51.142;22.486;2022-09-03T12:55:38;99720.25;;;23.20;49.55
24031;BME280;12240;51.142;22.486;2022-09-03T12:58:22;99715.88;;;23.01;49.97
24031;BME280;12240;51.142;22.486;2022-09-03T13:01:07;99706.06;;;22.51;50.45
24031;BME280;12240;51.142;22.486;2022-09-03T13:04:11;99707.78;;;22.94;50.69
24031;BME280;12240;51.142;22.486;2022-09-03T13:06:58;99704.78;;;22.53;51.08
24031;BME280;12240;51.142;22.486;2022-09-03T13:09:32;99641.59;;;22.22;51.81
24031;BME280;12240;51.142;22.486;2022-09-03T13:12:01;99717.00;;;22.38;52.37
24031;BME280;12240;51.142;22.486;2022-09-03T13:14:47;99712.47;;;22.32;52.76
24031;BME280;12240;51.142;22.486;2022-09-03T13:17:39;99703.81;;;21.79;54.11
24031;BME280;12240;51.142;22.486;2022-09-03T13:34:06;99716.13;;;20.26;65.17
24031;BME280;12240;51.142;22.486;2022-09-03T13:36:49;99705.00;;;19.95;66.37
24031;BME280;12240;51.142;22.486;2022-09-03T13:39:40;99703.13;;;19.96;66.97
24031;BME280;12240;51.142;22.486;2022-09-03T13:42:17;99721.22;;;19.95;67.44
24031;BME280;12240;51.142;22.486;2022-09-03T13:45:24;99713.66;;;19.71;68.31
24031;BME280;12240;51.142;22.486;2022-09-03T13:48:12;99682.13;;;19.85;68.00
24031;BME280;12240;51.142;22.486;2022-09-03T13:51:27;99715.78;;;19.89;67.87
24031;BME280;12240;51.142;22.486;2022-09-03T13:57:24;99709.91;;;20.26;67.62
24031;BME280;12240;51.142;22.486;2022-09-03T14:00:08;99709.25;;;21.02;65.94
24031;BME280;12240;51.142;22.486;2022-09-03T14:06:17;99710.72;;;21.68;63.09
24031;BME280;12240;51.142;22.486;2022-09-03T14:09:22;99709.88;;;22.43;61.62
24031;BME280;12240;51.142;22.486;2022-09-03T14:12:09;99676.78;;;22.59;59.74
24031;BME280;12240;51.142;22.486;2022-09-03T14:17:55;99671.25;;;22.17;61.27
24031;BME280;12240;51.142;22.486;2022-09-03T14:20:32;99695.75;;;22.35;62.07
24031;BME280;12240;51.142;22.486;2022-09-03T14:26:29;99703.63;;;21.67;62.82
24031;BME280;12240;51.142;22.486;2022-09-03T15:01:14;99725.50;;;20.43;70.46
24031;BME280;12240;51.142;22.486;2022-09-03T15:07:23;99713.84;;;21.08;67.87
24031;BME280;12240;51.142;22.486;2022-09-03T15:12:50;99718.72;;;21.50;66.89
24031;BME280;12240;51.142;22.486;2022-09-03T15:15:29;99709.34;;;21.40;66.00
24031;BME280;12240;51.142;22.486;2022-09-03T15:21:51;99722.66;;;21.54;65.30
24031;BME280;12240;51.142;22.486;2022-09-03T15:24:48;99725.06;;;22.20;64.77
24031;BME280;12240;51.142;22.486;2022-09-03T15:30:19;99718.16;;;22.55;61.00
24031;BME280;12240;51.142;22.486;2022-09-03T15:32:56;99680.63;;;21.83;60.61
24031;BME280;12240;51.142;22.486;2022-09-03T15:36:12;99729.28;;;21.65;60.92
24031;BME280;12240;51.142;22.486;2022-09-03T15:44:16;99725.94;;;20.53;64.07
24031;BME280;12240;51.142;22.486;2022-09-03T15:49:43;99745.66;;;20.93;64.92
24031;BME280;12240;51.142;22.486;2022-09-03T15:55:38;99731.75;;;20.44;65.77
24031;BME280;12240;51.142;22.486;2022-09-03T15:58:39;99737.56;;;20.80;65.93
24031;BME280;12240;51.142;22.486;2022-09-03T16:01:41;99741.75;;;20.82;66.04
24031;BME280;12240;51.142;22.486;2022-09-03T16:09:47;99748.31;;;20.15;67.79
24031;BME280;12240;51.142;22.486;2022-09-03T16:16:09;99707.56;;;19.15;70.72
24031;BME280;12240;51.142;22.486;2022-09-03T16:18:52;99711.63;;;18.98;71.92
24031;BME280;12240;51.142;22.486;2022-09-03T16:24:45;99754.00;;;19.04;74.15
24031;BME280;12240;51.142;22.486;2022-09-03T16:27:29;99710.91;;;18.55;76.01
24031;BME280;12240;51.142;22.486;2022-09-03T16:30:09;99754.41;;;18.52;78.43
24031;BME280;12240;51.142;22.486;2022-09-03T16:38:57;99746.16;;;18.18;82.42
24031;BME280;12240;51.142;22.486;2022-09-03T16:42:05;99742.00;;;17.95;84.29
24031;BME280;12240;51.142;22.486;2022-09-03T16:59:58;99752.91;;;17.28;93.02
24031;BME280;12240;51.142;22.486;2022-09-03T17:02:50;99750.63;;;17.11;95.42
24031;BME280;12240;51.142;22.486;2022-09-03T17:25:39;99768.81;;;16.04;100.00
24031;BME280;12240;51.142;22.486;2022-09-03T17:31:55;99772.63;;;15.79;100.00
24031;BME280;12240;51.142;22.486;2022-09-03T17:34:36;99788.13;;;15.69;100.00
24031;BME280;12240;51.142;22.486;2022-09-03T17:43:23;99788.91;;;15.47;100.00
24031;BME280;12240;51.142;22.486;2022-09-03T17:49:33;99746.28;;;14.97;100.00
24031;BME280;12240;51.142;22.486;2022-09-03T17:55:28;99804.94;;;15.08;100.00
24031;BME280;12240;51.142;22.486;2022-09-03T17:58:19;99804.59;;;14.95;100.00
24031;BME280;12240;51.142;22.486;2022-09-03T18:03:58;99807.78;;;14.74;100.00
24031;BME280;12240;51.142;22.486;2022-09-03T18:14:51;99818.69;;;14.49;100.00
24031;BME280;12240;51.142;22.486;2022-09-03T18:17:58;99815.16;;;14.40;100.00
24031;BME280;12240;51.142;22.486;2022-09-03T18:20:53;99813.97;;;14.35;100.00
24031;BME280;12240;51.142;22.486;2022-09-03T18:24:29;99826.03;;;14.31;100.00
24031;BME280;12240;51.142;22.486;2022-09-03T18:27:32;99806.38;;;14.06;100.00
24031;BME280;12240;51.142;22.486;2022-09-03T18:30:20;99792.75;;;13.91;100.00
24031;BME280;12240;51.142;22.486;2022-09-03T18:33:08;99839.53;;;14.05;100.00